Bryan's Hourly Summary for Wednesday, July 11, 2018
Hour Temp
(f)
RH
(%)
Solar Rad.
(MJ/m2)
Rainfall
(in)
Wind
(mph)
7/11/2018 12:00 AM 81 69 0 0 5.06
7/11/2018 1:00 AM 79 77 0 0 1.29
7/11/2018 2:00 AM 77 83 0 0 0
7/11/2018 3:00 AM 77 86 0 0 0.19
7/11/2018 4:00 AM 76 88 0 0 0.2
7/11/2018 5:00 AM 76 89 0 0 0
7/11/2018 6:00 AM 75 92 0 0 0
7/11/2018 7:00 AM 74 93 0.01 0 0
7/11/2018 8:00 AM 75 93 0.27 0 0.01
7/11/2018 9:00 AM 77 86 0.62 0 2.08
7/11/2018 10:00 AM 80 72 1.83 0 5.42
7/11/2018 11:00 AM 83 57 2.33 0 5.42
7/11/2018 12:00 PM 86 52 3.05 0 3.96
7/11/2018 1:00 PM 88 49 3.38 0 4.22
7/11/2018 2:00 PM 89 46 3.39 0 5.07
7/11/2018 3:00 PM 90 46 3.31 0 4.98
7/11/2018 4:00 PM 91 39 3.09 0 5
7/11/2018 5:00 PM 92 40 2.53 0 5.22
7/11/2018 6:00 PM 92 43 1.89 0 5.16
7/11/2018 7:00 PM 91 44 1.14 0 4.79
7/11/2018 8:00 PM 90 45 0.44 0 4.65
7/11/2018 9:00 PM 87 49 0.03 0 2.42
7/11/2018 10:00 PM 85 57 0 0 3.27
7/11/2018 11:00 PM 83 60 0 0 2.83
Data Summary 83 64 27.31 0.00 2.97